Terminal Aerodrome Forecast
Issued by NWS Birmingham, AL

Home | Current Version | Previous Version | Text Only | Print | Product List | Glossary On
Versions: 1 2 3 4 5 6 7 8 9 10 11 12 13 14 15
000
FTUS44 KBMX 281100
TAFBHM
TAF
KBHM 281138Z 2812/2912 16005KT 6SM -RA BR BKN007 OVC020
     FM281600 27004KT 5SM -RA BR OVC007
     FM290300 35006KT 4SM -RA BR OVC007=

USA.gov is the U.S. government's official web portal to all federal, state and local government web resources and services.